createdAt,value
2018-02-15T00:00:35.971Z,98946.73
2018-02-15T00:03:03.393Z,98950.13
2018-02-15T00:05:31.521Z,98946.30
2018-02-15T00:07:58.949Z,98945.94
2018-02-15T00:10:26.363Z,98937.27
2018-02-15T00:12:53.777Z,98933.98
2018-02-15T00:15:21.198Z,98932.07
2018-02-15T00:17:48.617Z,98940.61
2018-02-15T00:20:16.032Z,98930.02
2018-02-15T00:22:43.457Z,98931.63
2018-02-15T00:25:10.860Z,98926.33
2018-02-15T00:27:38.291Z,98931.16
2018-02-15T00:30:05.688Z,98931.32
2018-02-15T00:32:33.103Z,98926.08
2018-02-15T00:35:00.530Z,98930.89
2018-02-15T00:37:27.933Z,98929.48
2018-02-15T00:39:55.356Z,98928.50
2018-02-15T00:42:22.759Z,98934.81
2018-02-15T00:44:50.186Z,98929.17
2018-02-15T00:47:17.649Z,98924.63
2018-02-15T00:49:45.062Z,98919.53
2018-02-15T00:52:12.468Z,98921.19
2018-02-15T00:54:40.297Z,98916.06
2018-02-15T00:57:07.701Z,98917.30
2018-02-15T00:59:35.151Z,98917.97
2018-02-15T01:02:03.561Z,98916.70
2018-02-15T01:04:30.980Z,98919.02
2018-02-15T01:06:58.398Z,98929.35
2018-02-15T01:09:25.808Z,98927.69
2018-02-15T01:11:53.837Z,98932.92
2018-02-15T01:14:21.253Z,98933.34
2018-02-15T01:16:48.664Z,98940.10
2018-02-15T01:19:16.081Z,98945.64
2018-02-15T01:21:43.493Z,98951.55
2018-02-15T01:24:10.921Z,98939.06
2018-02-15T01:26:38.333Z,98941.23
2018-02-15T01:29:05.748Z,98940.31
2018-02-15T01:31:33.161Z,98937.02
2018-02-15T01:34:00.588Z,98930.52
2018-02-15T01:36:28.005Z,98919.50
2018-02-15T01:38:55.417Z,98910.92
2018-02-15T01:41:22.836Z,98914.25
2018-02-15T01:43:50.278Z,98904.45
2018-02-15T01:46:17.672Z,98894.84
2018-02-15T01:48:45.093Z,98884.60
2018-02-15T01:51:12.513Z,98878.09
2018-02-15T01:53:39.966Z,98866.78
2018-02-15T01:56:07.348Z,98869.02
2018-02-15T01:58:35.309Z,98873.66
2018-02-15T02:01:02.728Z,98871.75
2018-02-15T02:03:30.145Z,98863.77
2018-02-15T02:05:57.563Z,98871.89
2018-02-15T02:08:24.973Z,98869.16
2018-02-15T02:10:52.379Z,98863.05
2018-02-15T02:13:19.798Z,98857.53
2018-02-15T02:15:47.287Z,98856.43
2018-02-15T02:18:14.701Z,98856.22
2018-02-15T02:20:42.122Z,98854.93
2018-02-15T02:23:09.524Z,98854.50
2018-02-15T02:25:36.956Z,98848.90
2018-02-15T02:28:04.379Z,98842.66
2018-02-15T02:30:31.809Z,98831.97
2018-02-15T02:32:59.229Z,98837.06
2018-02-15T02:35:26.649Z,98828.93
2018-02-15T02:37:54.069Z,98828.50
2018-02-15T02:40:21.476Z,98827.53
2018-02-15T02:42:48.899Z,98829.73
2018-02-15T02:45:16.309Z,98833.31
2018-02-15T02:47:43.728Z,98826.06
2018-02-15T02:50:11.133Z,98823.72
2018-02-15T02:52:38.566Z,98823.46
2018-02-15T02:55:05.977Z,98817.66
2018-02-15T02:57:33.403Z,98818.58
2018-02-15T03:00:00.813Z,98816.48
2018-02-15T03:02:28.245Z,98824.04
2018-02-15T03:04:55.653Z,98827.06
2018-02-15T03:07:23.076Z,98823.39
2018-02-15T03:09:50.500Z,98810.72
2018-02-15T03:12:17.921Z,98807.11
2018-02-15T03:14:45.329Z,98794.17
2018-02-15T03:17:12.883Z,98797.37
2018-02-15T03:19:40.292Z,98797.94
2018-02-15T03:22:08.248Z,98801.88
2018-02-15T03:24:35.659Z,98796.77
2018-02-15T03:27:03.068Z,98793.69
2018-02-15T03:29:30.479Z,98790.46
2018-02-15T03:31:57.909Z,98792.03
2018-02-15T03:34:25.316Z,98792.55
2018-02-15T03:36:52.736Z,98786.80
2018-02-15T03:39:20.136Z,98789.98
2018-02-15T03:41:47.569Z,98796.20
2018-02-15T03:44:14.985Z,98794.41
2018-02-15T03:46:42.401Z,98785.45
2018-02-15T03:49:09.823Z,98776.53
2018-02-15T03:51:37.240Z,98779.11
2018-02-15T03:54:04.648Z,98777.03
2018-02-15T03:56:32.375Z,98779.90
2018-02-15T03:58:59.808Z,98776.59
2018-02-15T04:01:27.222Z,98773.45
2018-02-15T04:03:54.649Z,98769.05
2018-02-15T04:06:22.060Z,98769.00
2018-02-15T04:08:49.474Z,98758.83
2018-02-15T04:11:16.880Z,98752.25
2018-02-15T04:13:44.303Z,98748.16
2018-02-15T04:16:11.707Z,98754.59
2018-02-15T04:18:39.117Z,98759.56
2018-02-15T04:21:06.537Z,98762.44
2018-02-15T04:23:33.961Z,98770.72
2018-02-15T04:26:01.356Z,98782.91
2018-02-15T04:28:28.776Z,98778.11
2018-02-15T04:30:56.201Z,98791.61
2018-02-15T04:33:23.616Z,98792.95
2018-02-15T04:35:51.025Z,98791.73
2018-02-15T04:38:18.445Z,98792.95
2018-02-15T04:40:45.852Z,98803.09
2018-02-15T04:43:13.273Z,98801.11
2018-02-15T04:45:40.686Z,98802.53
2018-02-15T04:48:08.109Z,98805.75
2018-02-15T04:50:35.518Z,98798.38
2018-02-15T04:53:02.937Z,98802.14
2018-02-15T04:55:30.356Z,98804.16
2018-02-15T04:57:57.839Z,98801.64
2018-02-15T05:00:25.257Z,98802.83
2018-02-15T05:02:52.665Z,98807.83
2018-02-15T05:05:20.084Z,98808.31
2018-02-15T05:07:47.516Z,98808.31
2018-02-15T05:10:14.928Z,98804.87
2018-02-15T05:12:43.025Z,98805.61
2018-02-15T05:15:10.453Z,98803.38
2018-02-15T05:17:37.868Z,98800.23
2018-02-15T05:20:05.283Z,98794.33
2018-02-15T05:22:32.700Z,98787.67
2018-02-15T05:25:00.123Z,98796.86
2018-02-15T05:27:27.537Z,98787.38
2018-02-15T05:29:54.959Z,98789.89
2018-02-15T05:32:22.364Z,98789.48
2018-02-15T05:34:49.793Z,98786.13
2018-02-15T05:37:17.193Z,98792.41
2018-02-15T05:39:44.604Z,98787.46
2018-02-15T05:42:12.004Z,98793.11
2018-02-15T05:44:39.430Z,98789.18
2018-02-15T05:47:06.840Z,98788.78
2018-02-15T05:49:34.257Z,98793.33
2018-02-15T05:52:01.666Z,98782.41
2018-02-15T05:54:29.080Z,98782.23
2018-02-15T05:56:56.500Z,98785.97
2018-02-15T05:59:23.927Z,98790.47
2018-02-15T06:01:51.328Z,98783.53
2018-02-15T06:04:18.749Z,98787.77
2018-02-15T06:06:46.164Z,98781.78
2018-02-15T06:09:13.577Z,98779.61
2018-02-15T06:11:40.988Z,98782.87
2018-02-15T06:14:08.397Z,98785.00
2018-02-15T06:16:35.812Z,98791.81
2018-02-15T06:19:03.223Z,98783.31
2018-02-15T06:21:30.644Z,98787.52
2018-02-15T06:23:58.048Z,98790.34
2018-02-15T06:26:25.452Z,98791.19
2018-02-15T06:28:52.851Z,98795.42
2018-02-15T06:31:20.282Z,98785.16
2018-02-15T06:33:47.680Z,98783.44
2018-02-15T06:36:15.107Z,98785.20
2018-02-15T06:38:42.495Z,98775.41
2018-02-15T06:41:09.912Z,98784.22
2018-02-15T06:43:37.322Z,98781.58
2018-02-15T06:46:04.730Z,98780.98
2018-02-15T06:48:32.133Z,98775.12
2018-02-15T06:50:59.558Z,98779.16
2018-02-15T06:53:26.959Z,98779.19
2018-02-15T06:55:54.368Z,98781.83
2018-02-15T06:58:21.772Z,98781.65
2018-02-15T07:00:49.956Z,98779.13
2018-02-15T07:03:17.954Z,98783.02
2018-02-15T07:05:45.380Z,98784.36
2018-02-15T07:08:12.779Z,98791.11
2018-02-15T07:10:40.190Z,98787.25
2018-02-15T07:13:07.593Z,98782.21
2018-02-15T07:15:35.004Z,98782.89
2018-02-15T07:18:02.409Z,98779.54
2018-02-15T07:20:29.802Z,98778.72
2018-02-15T07:22:57.223Z,98784.06
2018-02-15T07:25:24.618Z,98778.86
2018-02-15T07:27:52.035Z,98786.23
2018-02-15T07:30:19.432Z,98788.77
2018-02-15T07:32:46.844Z,98790.95
2018-02-15T07:35:14.237Z,98793.21
2018-02-15T07:37:41.858Z,98800.84
2018-02-15T07:40:09.269Z,98805.63
2018-02-15T07:42:36.687Z,98803.82
2018-02-15T07:45:04.084Z,98810.02
2018-02-15T07:47:31.497Z,98808.86
2018-02-15T07:49:58.900Z,98806.89
2018-02-15T07:52:26.307Z,98809.22
2018-02-15T07:54:53.717Z,98797.39
2018-02-15T07:57:21.127Z,98804.72
2018-02-15T07:59:48.542Z,98806.68
2018-02-15T08:02:15.956Z,98800.38
2018-02-15T08:04:43.369Z,98801.53
2018-02-15T08:07:10.797Z,98804.72
2018-02-15T08:09:38.206Z,98803.89
2018-02-15T08:12:05.626Z,98800.81
2018-02-15T08:14:33.037Z,98797.52
2018-02-15T08:17:00.458Z,98797.95
2018-02-15T08:19:27.864Z,98795.59
2018-02-15T08:21:55.270Z,98801.31
2018-02-15T08:24:22.693Z,98798.82
2018-02-15T08:26:50.103Z,98802.53
2018-02-15T08:29:17.526Z,98798.98
2018-02-15T08:31:44.929Z,98794.94
2018-02-15T08:34:12.350Z,98799.69
2018-02-15T08:36:39.760Z,98803.05
2018-02-15T08:39:07.175Z,98796.80
2018-02-15T08:41:34.573Z,98791.08
2018-02-15T08:44:02.008Z,98790.97
2018-02-15T08:46:29.485Z,98792.45
2018-02-15T08:48:56.903Z,98796.08
2018-02-15T08:51:24.305Z,98797.13
2018-02-15T08:53:51.722Z,98798.06
2018-02-15T08:56:20.227Z,98803.45
2018-02-15T08:58:47.684Z,98802.91
2018-02-15T09:01:15.087Z,98797.45
2018-02-15T09:03:42.516Z,98786.92
2018-02-15T09:06:09.912Z,98774.98
2018-02-15T09:08:37.327Z,98763.25
2018-02-15T09:11:04.750Z,98763.50
2018-02-15T09:13:32.151Z,98763.87
2018-02-15T09:15:59.560Z,98767.38
2018-02-15T09:18:26.985Z,98764.31
2018-02-15T09:20:54.393Z,98757.98
2018-02-15T09:23:21.802Z,98752.63
2018-02-15T09:25:49.214Z,98762.90
2018-02-15T09:28:16.625Z,98752.11
2018-02-15T09:30:44.038Z,98755.98
2018-02-15T09:33:11.456Z,98755.95
2018-02-15T09:35:38.870Z,98758.30
2018-02-15T09:38:06.273Z,98761.07
2018-02-15T09:40:33.698Z,98760.53
2018-02-15T09:43:01.100Z,98761.07
2018-02-15T09:45:28.533Z,98760.02
2018-02-15T09:47:55.928Z,98761.18
2018-02-15T09:50:23.353Z,98758.13
2018-02-15T09:52:50.753Z,98749.45
2018-02-15T09:55:18.204Z,98757.92
2018-02-15T09:57:45.617Z,98747.25
2018-02-15T10:00:13.030Z,98748.36
2018-02-15T10:02:40.437Z,98748.09
2018-02-15T10:05:07.849Z,98752.80
2018-02-15T10:07:35.885Z,98746.02
2018-02-15T10:10:03.303Z,98753.05
2018-02-15T10:12:30.700Z,98749.80
2018-02-15T10:14:58.116Z,98749.87
2018-02-15T10:17:25.520Z,98750.58
2018-02-15T10:19:52.941Z,98748.66
2018-02-15T10:22:20.349Z,98751.80
2018-02-15T10:24:47.794Z,98753.34
2018-02-15T10:27:15.201Z,98748.75
2018-02-15T10:29:43.612Z,98756.41
2018-02-15T10:32:11.026Z,98762.20
2018-02-15T10:34:38.441Z,98756.13
2018-02-15T10:37:05.851Z,98759.40
2018-02-15T10:39:33.282Z,98753.73
2018-02-15T10:42:00.684Z,98750.14
2018-02-15T10:44:28.101Z,98743.75
2018-02-15T10:46:56.044Z,98742.28
2018-02-15T10:49:23.445Z,98742.99
2018-02-15T10:51:50.856Z,98736.63
2018-02-15T10:54:18.293Z,98739.92
2018-02-15T10:56:45.704Z,98734.34
2018-02-15T10:59:13.109Z,98731.68
2018-02-15T11:01:41.542Z,98727.00
2018-02-15T11:07:15.710Z,98729.15
2018-02-15T11:09:43.116Z,98729.55
2018-02-15T11:12:10.540Z,98729.28
2018-02-15T11:14:37.947Z,98726.25
2018-02-15T11:17:05.375Z,98734.94
2018-02-15T11:19:32.782Z,98719.98
2018-02-15T11:22:00.198Z,98719.14
2018-02-15T11:24:27.615Z,98721.61
2018-02-15T11:26:55.079Z,98718.79
2018-02-15T11:29:22.498Z,98722.72
2018-02-15T11:31:49.914Z,98725.65
2018-02-15T11:34:17.341Z,98731.72
2018-02-15T11:36:44.760Z,98737.89
2018-02-15T11:39:12.185Z,98731.82
2018-02-15T11:41:39.641Z,98733.63
2018-02-15T11:44:07.045Z,98738.94
2018-02-15T11:46:34.467Z,98742.36
2018-02-15T11:49:01.878Z,98742.20
2018-02-15T11:51:29.316Z,98743.45
2018-02-15T11:53:56.741Z,98737.91
2018-02-15T11:56:24.145Z,98736.91
2018-02-15T11:58:51.632Z,98726.72
2018-02-15T12:01:19.058Z,98724.63
2018-02-15T12:03:46.512Z,98728.02
2018-02-15T12:06:13.942Z,98732.03
2018-02-15T12:08:41.369Z,98730.75
2018-02-15T12:11:08.777Z,98730.34
2018-02-15T12:13:36.227Z,98728.69
2018-02-15T12:16:03.670Z,98732.16
2018-02-15T12:18:31.177Z,98723.40
2018-02-15T12:20:58.945Z,98726.00
2018-02-15T12:23:26.392Z,98728.67
2018-02-15T12:25:53.809Z,98719.29
2018-02-15T12:28:21.249Z,98716.81
2018-02-15T12:30:48.668Z,98720.50
2018-02-15T12:33:16.084Z,98715.09
2018-02-15T12:35:43.498Z,98716.45
2018-02-15T12:38:10.906Z,98707.52
2018-02-15T12:40:38.342Z,98711.55
2018-02-15T12:43:05.773Z,98704.33
2018-02-15T12:45:33.189Z,98703.70
2018-02-15T12:48:00.646Z,98704.70
2018-02-15T12:50:28.061Z,98709.00
2018-02-15T12:52:55.464Z,98709.74
2018-02-15T12:55:22.901Z,98712.49
2018-02-15T12:57:50.312Z,98708.38
2018-02-15T13:00:17.737Z,98707.98
2018-02-15T13:02:45.172Z,98708.54
2018-02-15T13:05:12.591Z,98708.09
2018-02-15T13:07:40.013Z,98709.03
2018-02-15T13:10:07.455Z,98713.89
2018-02-15T13:12:46.757Z,98715.40
2018-02-15T13:15:26.076Z,98710.35
2018-02-15T13:17:53.491Z,98713.55
2018-02-15T13:20:20.906Z,98706.19
2018-02-15T13:22:48.439Z,98720.77
2018-02-15T13:25:15.896Z,98712.54
2018-02-15T13:27:55.233Z,98708.55
2018-02-15T13:30:22.649Z,98710.99
2018-02-15T13:32:50.069Z,98713.20
2018-02-15T13:35:17.475Z,98715.05
2018-02-15T13:37:44.894Z,98712.22
2018-02-15T13:40:12.313Z,98718.70
2018-02-15T13:42:39.736Z,98715.62
2018-02-15T13:45:07.195Z,98721.27
2018-02-15T13:47:34.608Z,98725.50
2018-02-15T13:50:02.038Z,98723.66
2018-02-15T13:52:29.460Z,98726.48
2018-02-15T13:54:56.889Z,98725.25
2018-02-15T13:57:24.304Z,98726.78
2018-02-15T13:59:51.834Z,98729.30
2018-02-15T14:02:19.251Z,98719.29
2018-02-15T14:04:46.663Z,98716.99
2018-02-15T14:07:14.137Z,98727.30
2018-02-15T14:09:41.649Z,98724.93
2018-02-15T14:12:09.072Z,98729.72
2018-02-15T14:14:36.514Z,98725.55
2018-02-15T14:17:03.951Z,98728.27
2018-02-15T14:19:31.376Z,98726.91
2018-02-15T14:21:58.823Z,98720.73
2018-02-15T14:24:26.230Z,98730.77
2018-02-15T14:26:53.660Z,98736.09
2018-02-15T14:29:21.067Z,98742.77
2018-02-15T14:31:48.495Z,98744.28
2018-02-15T14:34:16.002Z,98746.75
2018-02-15T14:36:43.505Z,98757.90
2018-02-15T14:39:10.912Z,98757.13
2018-02-15T14:41:38.366Z,98763.56
2018-02-15T14:44:05.773Z,98766.42
2018-02-15T14:46:33.942Z,98774.98
2018-02-15T14:49:01.358Z,98774.53
2018-02-15T14:51:28.778Z,98785.19
2018-02-15T14:53:56.174Z,98781.05
2018-02-15T14:56:23.613Z,98785.80
2018-02-15T14:58:51.026Z,98783.13
2018-02-15T15:01:18.433Z,98783.52
2018-02-15T15:03:45.852Z,98785.38
2018-02-15T15:06:13.274Z,98786.55
2018-02-15T15:08:40.677Z,98783.33
2018-02-15T15:11:08.120Z,98785.64
2018-02-15T15:13:35.595Z,98790.05
2018-02-15T15:16:03.029Z,98793.53
2018-02-15T15:18:30.441Z,98789.81
2018-02-15T15:20:57.861Z,98785.55
2018-02-15T15:23:25.325Z,98786.91
2018-02-15T15:25:52.742Z,98792.39
2018-02-15T15:28:20.814Z,98786.52
2018-02-15T15:30:48.256Z,98784.59
2018-02-15T15:33:15.657Z,98788.38
2018-02-15T15:35:43.077Z,98791.91
2018-02-15T15:38:10.492Z,98788.51
2018-02-15T15:40:37.942Z,98788.25
2018-02-15T15:43:06.528Z,98785.09
2018-02-15T15:45:33.933Z,98785.45
2018-02-15T15:48:01.385Z,98780.56
2018-02-15T15:50:28.793Z,98788.38
2018-02-15T15:52:56.236Z,98790.69
2018-02-15T15:55:23.632Z,98795.45
2018-02-15T15:57:51.057Z,98800.14
2018-02-15T16:00:18.490Z,98795.61
2018-02-15T16:02:45.958Z,98804.74
2018-02-15T16:05:13.377Z,98802.49
2018-02-15T16:07:40.807Z,98806.27
2018-02-15T16:10:08.241Z,98807.79
2018-02-15T16:12:35.666Z,98804.28
2018-02-15T16:15:03.074Z,98808.78
2018-02-15T16:17:30.485Z,98806.59
2018-02-15T16:19:57.892Z,98799.72
2018-02-15T16:22:25.305Z,98804.84
2018-02-15T16:24:52.719Z,98805.77
2018-02-15T16:27:20.170Z,98804.21
2018-02-15T16:29:47.592Z,98804.91
2018-02-15T16:32:15.021Z,98810.25
2018-02-15T16:34:42.431Z,98803.83
2018-02-15T16:37:09.883Z,98811.56
2018-02-15T16:39:38.028Z,98813.22
2018-02-15T16:42:05.493Z,98822.22
2018-02-15T16:44:32.897Z,98827.66
2018-02-15T16:47:00.323Z,98827.22
2018-02-15T16:49:27.735Z,98833.80
2018-02-15T16:51:55.222Z,98834.87
2018-02-15T16:54:22.629Z,98832.94
2018-02-15T16:56:50.046Z,98838.36
2018-02-15T16:59:17.534Z,98835.94
2018-02-15T17:01:44.961Z,98830.22
2018-02-15T17:04:14.330Z,98839.34
2018-02-15T17:06:41.737Z,98833.00
2018-02-15T17:09:09.168Z,98826.69
2018-02-15T17:11:36.586Z,98836.41
2018-02-15T17:14:04.085Z,98830.75
2018-02-15T17:16:32.006Z,98834.67
2018-02-15T17:18:59.421Z,98834.09
2018-02-15T17:21:26.840Z,98829.22
2018-02-15T17:23:54.252Z,98834.30
2018-02-15T17:26:21.664Z,98838.19
2018-02-15T17:28:49.083Z,98834.40
2018-02-15T17:31:16.488Z,98832.00
2018-02-15T17:33:43.918Z,98835.07
2018-02-15T17:36:11.330Z,98840.05
2018-02-15T17:38:39.773Z,98839.95
2018-02-15T17:41:07.207Z,98839.15
2018-02-15T17:43:34.626Z,98844.48
2018-02-15T17:46:02.066Z,98848.60
2018-02-15T17:48:29.491Z,98853.48
2018-02-15T17:50:56.910Z,98856.69
2018-02-15T17:53:24.325Z,98851.33
2018-02-15T17:55:51.737Z,98854.69
2018-02-15T17:58:19.145Z,98861.84
2018-02-15T18:00:46.582Z,98868.43
2018-02-15T18:03:14.041Z,98870.15
2018-02-15T18:05:41.409Z,98874.23
2018-02-15T18:08:08.822Z,98874.05
2018-02-15T18:10:36.234Z,98871.32
2018-02-15T18:13:03.647Z,98876.16
2018-02-15T18:15:31.079Z,98888.64
2018-02-15T18:17:58.512Z,98880.95
2018-02-15T18:20:25.940Z,98880.59
2018-02-15T18:22:53.340Z,98889.41
2018-02-15T18:25:20.761Z,98888.43
2018-02-15T18:27:48.164Z,98890.69
2018-02-15T18:30:15.629Z,98893.92
2018-02-15T18:32:43.052Z,98895.25
2018-02-15T18:35:10.506Z,98892.75
2018-02-15T18:37:37.950Z,98895.48
2018-02-15T18:40:05.369Z,98894.97
2018-02-15T18:42:32.784Z,98888.62
2018-02-15T18:45:00.203Z,98881.23
2018-02-15T18:47:27.676Z,98883.70
2018-02-15T18:49:55.142Z,98885.91
2018-02-15T18:52:22.599Z,98884.45
2018-02-15T18:54:50.020Z,98888.96
2018-02-15T18:57:17.424Z,98887.30
2018-02-15T18:59:44.845Z,98890.48
2018-02-15T19:02:12.753Z,98890.44
2018-02-15T19:04:40.173Z,98895.86
2018-02-15T19:07:07.582Z,98895.55
2018-02-15T19:09:35.006Z,98893.70
2018-02-15T19:12:02.425Z,98897.74
2018-02-15T19:14:29.841Z,98897.29
2018-02-15T19:16:57.254Z,98898.58
2018-02-15T19:19:24.690Z,98907.45
2018-02-15T19:21:52.139Z,98907.89
2018-02-15T19:24:19.613Z,98903.73
2018-02-15T19:26:47.045Z,98896.19
2018-02-15T19:29:14.805Z,98899.05
2018-02-15T19:31:42.238Z,98890.38
2018-02-15T19:34:09.750Z,98901.52
2018-02-15T19:36:37.202Z,98897.73
2018-02-15T19:39:04.638Z,98890.72
2018-02-15T19:41:32.120Z,98896.99
2018-02-15T19:43:59.550Z,98899.66
2018-02-15T19:46:26.969Z,98904.26
2018-02-15T19:48:54.385Z,98903.10
2018-02-15T19:51:21.825Z,98896.83
2018-02-15T19:53:49.236Z,98898.80
2018-02-15T19:56:16.665Z,98899.60
2018-02-15T19:58:44.077Z,98894.16
2018-02-15T20:01:11.568Z,98899.33
2018-02-15T20:03:38.969Z,98889.30
2018-02-15T20:06:06.389Z,98896.37
2018-02-15T20:08:33.803Z,98893.73
2018-02-15T20:11:01.213Z,98892.30
2018-02-15T20:13:28.649Z,98892.23
2018-02-15T20:15:56.060Z,98886.48
2018-02-15T20:18:23.477Z,98893.51
2018-02-15T20:20:50.897Z,98892.50
2018-02-15T20:23:18.307Z,98888.00
2018-02-15T20:28:47.066Z,98893.83
2018-02-15T20:31:14.476Z,98897.20
2018-02-15T20:33:41.881Z,98896.73
2018-02-15T20:36:09.307Z,98889.86
2018-02-15T20:38:42.274Z,98887.80
2018-02-15T20:41:09.684Z,98895.74
2018-02-15T20:43:37.092Z,98895.14
2018-02-15T20:46:04.505Z,98906.60
2018-02-15T20:48:31.942Z,98912.88
2018-02-15T20:51:05.025Z,98918.31
2018-02-15T20:53:38.106Z,98924.23
2018-02-15T20:56:05.527Z,98927.67
2018-02-15T20:58:32.924Z,98934.55
2018-02-15T21:01:00.332Z,98932.94
2018-02-15T21:03:27.737Z,98940.55
2018-02-15T21:05:55.146Z,98944.86
2018-02-15T21:08:22.554Z,98935.03
2018-02-15T21:10:49.989Z,98940.16
2018-02-15T21:13:17.401Z,98939.51
2018-02-15T21:15:44.812Z,98953.72
2018-02-15T21:18:12.212Z,98959.80
2018-02-15T21:20:39.622Z,98960.54
2018-02-15T21:23:07.044Z,98953.48
2018-02-15T21:25:34.443Z,98948.82
2018-02-15T21:28:01.861Z,98950.71
2018-02-15T21:30:29.256Z,98960.47
2018-02-15T21:32:56.680Z,98963.89
2018-02-15T21:35:24.080Z,98964.61
2018-02-15T21:37:51.492Z,98965.06
2018-02-15T21:40:18.897Z,98973.56
2018-02-15T21:42:46.320Z,98976.08
2018-02-15T21:45:13.720Z,98974.95
2018-02-15T21:47:41.140Z,98981.66
2018-02-15T21:50:08.528Z,98980.97
2018-02-15T21:52:35.951Z,98989.50
2018-02-15T21:55:03.352Z,98998.80
2018-02-15T21:57:30.770Z,98995.12
2018-02-15T22:02:40.128Z,99008.13
2018-02-15T22:05:07.520Z,99003.94
2018-02-15T22:07:34.940Z,99008.00
2018-02-15T22:10:02.347Z,99008.86
2018-02-15T22:12:29.749Z,99010.50
2018-02-15T22:14:57.149Z,99018.81
2018-02-15T22:17:24.564Z,99022.80
2018-02-15T22:19:52.803Z,99020.87
2018-02-15T22:22:20.190Z,99034.90
2018-02-15T22:24:47.589Z,99036.03
2018-02-15T22:27:15.022Z,99043.88
2018-02-15T22:29:42.428Z,99032.84
2018-02-15T22:32:09.841Z,99036.77
2018-02-15T22:34:37.254Z,99037.88
2018-02-15T22:37:04.644Z,99047.87
2018-02-15T22:39:32.065Z,99049.42
2018-02-15T22:41:59.465Z,99044.78
2018-02-15T22:44:26.876Z,99037.34
2018-02-15T22:46:54.272Z,99041.61
2018-02-15T22:49:21.684Z,99052.37
2018-02-15T22:51:49.085Z,99052.45
2018-02-15T22:54:16.502Z,99050.98
2018-02-15T22:56:43.937Z,99052.67
2018-02-15T22:59:11.317Z,99051.70
2018-02-15T23:01:38.718Z,99062.39
2018-02-15T23:04:06.133Z,99067.00
2018-02-15T23:06:33.554Z,99064.15
2018-02-15T23:09:00.971Z,99060.75
2018-02-15T23:11:28.368Z,99063.63
2018-02-15T23:13:55.815Z,99074.20
2018-02-15T23:16:23.192Z,99067.70
2018-02-15T23:18:50.605Z,99070.29
2018-02-15T23:21:18.012Z,99075.92
2018-02-15T23:23:45.512Z,99080.03
2018-02-15T23:26:12.905Z,99079.95
2018-02-15T23:28:40.325Z,99086.34
2018-02-15T23:31:07.726Z,99081.64
2018-02-15T23:33:35.147Z,99085.65
2018-02-15T23:36:02.544Z,99083.22
2018-02-15T23:38:29.952Z,99092.02
2018-02-15T23:40:57.365Z,99109.97
2018-02-15T23:43:25.003Z,99108.39
2018-02-15T23:45:52.419Z,99114.73
2018-02-15T23:48:19.826Z,99115.89
2018-02-15T23:50:47.244Z,99128.22
2018-02-15T23:53:14.635Z,99138.70
2018-02-15T23:55:42.054Z,99126.01
2018-02-15T23:58:09.452Z,99121.81
